createdAt,value
2018-04-12T00:00:21.225Z,20.60
2018-04-12T00:01:21.263Z,21.20
2018-04-12T00:02:21.174Z,20.10
2018-04-12T00:03:21.175Z,20.30
2018-04-12T00:04:21.122Z,21.10
2018-04-12T00:05:21.190Z,23.90
2018-04-12T00:06:21.080Z,22.70
2018-04-12T00:07:21.096Z,22.00
2018-04-12T00:08:21.013Z,20.80
2018-04-12T00:09:21.110Z,20.80
2018-04-12T00:10:20.979Z,21.10
2018-04-12T00:11:21.021Z,21.80
2018-04-12T00:12:20.924Z,21.60
2018-04-12T00:13:20.932Z,21.00
2018-04-12T00:14:20.876Z,22.50
2018-04-12T00:15:20.940Z,21.50
2018-04-12T00:16:20.828Z,22.70
2018-04-12T00:17:20.852Z,22.80
2018-04-12T00:18:20.769Z,25.70
2018-04-12T00:19:20.862Z,25.30
2018-04-12T00:20:20.728Z,25.50
2018-04-12T00:21:20.776Z,26.40
2018-04-12T00:22:20.677Z,24.20
2018-04-12T00:23:20.683Z,24.20
2018-04-12T00:24:20.623Z,23.00
2018-04-12T00:25:20.699Z,24.80
2018-04-12T00:26:20.572Z,23.00
2018-04-12T00:27:20.610Z,21.90
2018-04-12T00:28:20.521Z,27.10
2018-04-12T00:29:20.521Z,26.10
2018-04-12T00:30:20.475Z,29.20
2018-04-12T00:31:20.535Z,26.90
2018-04-12T00:32:20.424Z,26.90
2018-04-12T00:33:20.445Z,30.10
2018-04-12T00:34:20.375Z,34.20
2018-04-12T00:35:20.456Z,31.80
2018-04-12T00:36:20.323Z,25.90
2018-04-12T00:37:20.365Z,25.30
2018-04-12T00:38:20.273Z,22.00
2018-04-12T00:39:20.275Z,23.30
2018-04-12T00:40:20.225Z,24.70
2018-04-12T00:41:20.284Z,24.10
2018-04-12T00:42:20.175Z,22.90
2018-04-12T00:43:20.197Z,22.70
2018-04-12T00:44:20.122Z,25.20
2018-04-12T00:45:20.209Z,23.50
2018-04-12T00:46:20.074Z,25.10
2018-04-12T00:47:20.117Z,26.70
2018-04-12T00:48:20.023Z,23.30
2018-04-12T00:49:20.027Z,30.00
2018-04-12T00:50:19.972Z,30.10
2018-04-12T00:51:20.040Z,21.10
2018-04-12T00:52:19.923Z,27.30
2018-04-12T00:53:19.950Z,23.70
2018-04-12T00:54:19.871Z,28.90
2018-04-12T00:55:19.875Z,26.60
2018-04-12T00:56:19.820Z,26.30
2018-04-12T00:57:19.880Z,27.60
2018-04-12T00:58:19.772Z,28.60
2018-04-12T00:59:19.782Z,27.50
2018-04-12T01:00:19.720Z,29.90
2018-04-12T01:01:19.796Z,33.30
2018-04-12T01:02:19.671Z,27.40
2018-04-12T01:03:19.709Z,36.10
2018-04-12T01:04:19.632Z,32.20
2018-04-12T01:05:19.617Z,34.10
2018-04-12T01:06:19.574Z,31.20
2018-04-12T01:07:19.627Z,36.30
2018-04-12T01:08:19.521Z,30.80
2018-04-12T01:09:19.542Z,31.10
2018-04-12T01:10:19.472Z,39.90
2018-04-12T01:11:19.551Z,47.20
2018-04-12T01:12:19.422Z,40.80
2018-04-12T01:13:19.464Z,46.20
2018-04-12T01:14:19.371Z,39.70
2018-04-12T01:15:19.373Z,39.80
2018-04-12T01:16:19.320Z,41.90
2018-04-12T01:17:19.386Z,42.60
2018-04-12T01:18:19.272Z,35.60
2018-04-12T01:19:19.297Z,44.20
2018-04-12T01:20:19.220Z,52.40
2018-04-12T01:21:19.312Z,49.10
2018-04-12T01:22:19.170Z,50.30
2018-04-12T01:23:19.218Z,51.90
2018-04-12T01:24:19.125Z,54.00
2018-04-12T01:25:19.127Z,50.80
2018-04-12T01:26:19.069Z,54.70
2018-04-12T01:27:19.139Z,53.00
2018-04-12T01:28:19.018Z,52.20
2018-04-12T01:29:19.049Z,53.40
2018-04-12T01:30:18.966Z,50.70
2018-04-12T01:31:18.960Z,49.20
2018-04-12T01:32:18.916Z,52.00
2018-04-12T01:33:18.973Z,49.40
2018-04-12T01:34:18.870Z,53.80
2018-04-12T01:35:18.885Z,53.70
2018-04-12T01:36:18.816Z,51.60
2018-04-12T01:37:18.894Z,56.20
2018-04-12T01:38:18.772Z,46.80
2018-04-12T01:39:18.806Z,58.50
2018-04-12T01:40:18.718Z,56.40
2018-04-12T01:41:18.716Z,54.50
2018-04-12T01:42:18.663Z,56.20
2018-04-12T01:43:18.730Z,57.00
2018-04-12T01:44:18.614Z,54.40
2018-04-12T01:45:18.642Z,54.70
2018-04-12T01:46:18.565Z,58.80
2018-04-12T01:47:18.653Z,55.70
2018-04-12T01:48:18.518Z,56.70
2018-04-12T01:49:18.565Z,57.30
2018-04-12T01:50:18.472Z,53.40
2018-04-12T01:51:18.483Z,56.90
2018-04-12T01:52:18.412Z,56.40
2018-04-12T01:53:18.528Z,57.20
2018-04-12T01:54:18.360Z,55.20
2018-04-12T01:55:18.404Z,58.30
2018-04-12T01:56:18.313Z,57.90
2018-04-12T01:57:19.343Z,64.20
2018-04-12T01:58:18.260Z,56.10
2018-04-12T01:59:18.320Z,53.50
2018-04-12T02:00:18.215Z,67.00
2018-04-12T02:01:18.227Z,65.30
2018-04-12T02:02:18.161Z,67.50
2018-04-12T02:03:18.241Z,70.00
2018-04-12T02:04:18.110Z,71.60
2018-04-12T02:05:18.147Z,65.90
2018-04-12T02:06:18.062Z,70.30
2018-04-12T02:07:18.058Z,77.80
2018-04-12T02:08:18.020Z,71.20
2018-04-12T02:09:18.070Z,70.60
2018-04-12T02:10:17.964Z,72.10
2018-04-12T02:11:17.981Z,70.40
2018-04-12T02:12:17.915Z,67.90
2018-04-12T02:13:17.993Z,72.50
2018-04-12T02:14:17.860Z,69.60
2018-04-12T02:15:17.905Z,76.30
2018-04-12T02:16:17.810Z,77.80
2018-04-12T02:17:17.813Z,68.90
2018-04-12T02:18:17.763Z,70.90
2018-04-12T02:19:17.826Z,70.70
2018-04-12T02:20:17.711Z,62.30
2018-04-12T02:21:17.744Z,66.20
2018-04-12T02:22:17.660Z,61.20
2018-04-12T02:23:17.751Z,58.40
2018-04-12T02:24:17.618Z,58.90
2018-04-12T02:25:17.665Z,62.10
2018-04-12T02:26:17.563Z,62.20
2018-04-12T02:27:17.569Z,60.60
2018-04-12T02:28:17.510Z,63.30
2018-04-12T02:29:17.589Z,59.80
2018-04-12T02:30:17.459Z,58.20
2018-04-12T02:31:17.495Z,59.40
2018-04-12T02:32:17.416Z,61.40
2018-04-12T02:33:17.402Z,61.30
2018-04-12T02:34:17.358Z,58.70
2018-04-12T02:35:17.415Z,65.10
2018-04-12T02:36:17.310Z,61.50
2018-04-12T02:37:17.325Z,55.80
2018-04-12T02:38:17.258Z,63.20
2018-04-12T02:39:17.341Z,58.50
2018-04-12T02:40:17.213Z,63.00
2018-04-12T02:41:17.249Z,68.10
2018-04-12T02:42:17.161Z,62.10
2018-04-12T02:43:17.160Z,60.70
2018-04-12T02:44:17.110Z,67.40
2018-04-12T02:45:17.172Z,72.30
2018-04-12T02:46:17.057Z,74.90
2018-04-12T02:48:51.703Z,75.30
2018-04-12T02:49:48.734Z,78.60
2018-04-12T02:51:41.603Z,75.40
2018-04-12T02:52:41.517Z,78.00
2018-04-12T02:54:34.457Z,68.60
2018-04-12T02:55:34.370Z,73.00
2018-04-12T02:57:27.817Z,84.20
2018-04-12T02:58:27.727Z,75.90
2018-04-12T03:00:20.671Z,78.40
2018-04-12T03:01:20.578Z,78.10
2018-04-12T03:03:13.521Z,76.40
2018-04-12T03:04:13.440Z,76.50
2018-04-12T03:06:06.371Z,78.60
2018-04-12T03:07:06.322Z,88.30
2018-04-12T03:08:59.223Z,71.80
2018-04-12T03:09:59.147Z,70.90
2018-04-12T03:11:52.074Z,84.30
2018-04-12T03:12:51.979Z,75.80
2018-04-12T03:14:44.923Z,68.10
2018-04-12T03:15:44.828Z,66.70
2018-04-12T03:17:37.773Z,68.50
2018-04-12T03:18:37.682Z,76.40
2018-04-12T03:20:30.624Z,87.80
2018-04-12T03:21:30.531Z,87.10
2018-04-12T03:23:23.512Z,91.70
2018-04-12T03:24:23.399Z,88.50
2018-04-12T03:26:16.325Z,77.90
2018-04-12T03:27:16.236Z,82.70
2018-04-12T03:29:09.179Z,91.30
2018-04-12T03:30:09.086Z,82.80
2018-04-12T03:32:02.028Z,79.10
2018-04-12T03:33:01.935Z,84.20
2018-04-12T03:34:54.877Z,75.20
2018-04-12T03:35:54.784Z,83.30
2018-04-12T03:37:47.731Z,84.70
2018-04-12T03:38:47.638Z,87.60
2018-04-12T03:40:40.581Z,98.20
2018-04-12T03:41:40.491Z,84.90
2018-04-12T03:43:33.428Z,83.10
2018-04-12T03:44:33.338Z,89.60
2018-04-12T03:46:26.280Z,94.10
2018-04-12T03:47:26.185Z,93.30
2018-04-12T03:49:19.185Z,91.40
2018-04-12T03:50:19.044Z,94.30
2018-04-12T03:52:11.981Z,93.70
2018-04-12T03:53:11.889Z,96.00
2018-04-12T03:55:04.836Z,84.60
2018-04-12T03:56:04.743Z,83.20
2018-04-12T03:57:57.684Z,83.40
2018-04-12T03:58:57.592Z,84.80
2018-04-12T04:00:50.538Z,81.30
2018-04-12T04:01:50.443Z,85.00
2018-04-12T04:03:43.386Z,83.70
2018-04-12T04:04:43.291Z,76.00
2018-04-12T04:06:36.238Z,77.30
2018-04-12T04:07:36.139Z,75.90
2018-04-12T04:09:29.096Z,73.70
2018-04-12T04:10:28.991Z,74.40
2018-04-12T04:12:21.936Z,74.50
2018-04-12T04:13:21.841Z,77.60
2018-04-12T04:15:14.788Z,68.90
2018-04-12T04:16:14.693Z,70.30
2018-04-12T04:18:07.640Z,69.90
2018-04-12T04:19:07.546Z,78.80
2018-04-12T04:21:00.493Z,70.30
2018-04-12T04:22:00.399Z,78.50
2018-04-12T04:23:53.279Z,76.00
2018-04-12T04:24:53.250Z,80.40
2018-04-12T04:26:46.197Z,85.10
2018-04-12T04:27:46.103Z,81.40
2018-04-12T04:29:40.065Z,80.80
2018-04-12T04:30:38.954Z,82.90
2018-04-12T04:32:31.894Z,77.10
2018-04-12T04:33:31.806Z,89.60
2018-04-12T04:35:24.741Z,83.00
2018-04-12T04:36:24.650Z,85.50
2018-04-12T04:38:17.593Z,87.00
2018-04-12T04:39:17.515Z,92.80
2018-04-12T04:41:10.446Z,88.50
2018-04-12T04:42:10.351Z,84.30
2018-04-12T04:44:03.297Z,87.30
2018-04-12T04:45:03.204Z,83.50
2018-04-12T04:46:56.149Z,79.50
2018-04-12T04:47:56.069Z,80.60
2018-04-12T04:49:48.940Z,91.10
2018-04-12T04:50:48.907Z,90.10
2018-04-12T04:52:42.060Z,86.70
2018-04-12T04:53:41.850Z,86.70
2018-04-12T04:55:35.016Z,86.00
2018-04-12T04:56:34.808Z,89.90
2018-04-12T04:58:27.964Z,84.00
2018-04-12T04:59:27.764Z,86.50
2018-04-12T05:01:20.823Z,83.80
2018-04-12T05:02:20.719Z,80.30
2018-04-12T05:04:13.773Z,72.60
2018-04-12T05:05:13.673Z,78.60
2018-04-12T05:07:06.728Z,76.40
2018-04-12T05:08:06.628Z,73.80
2018-04-12T05:09:59.683Z,74.80
2018-04-12T05:10:59.585Z,73.40
2018-04-12T05:12:52.660Z,75.70
2018-04-12T05:13:52.439Z,77.60
2018-04-12T05:15:45.394Z,75.60
2018-04-12T05:16:45.292Z,74.10
2018-04-12T05:18:39.270Z,77.40
2018-04-12T05:19:38.146Z,74.40
2018-04-12T05:21:31.098Z,77.40
2018-04-12T05:22:30.995Z,80.10
2018-04-12T05:23:31.083Z,75.40
2018-04-12T05:24:30.980Z,69.70
2018-04-12T05:25:30.994Z,75.80
2018-04-12T05:26:30.897Z,73.10
2018-04-12T05:27:31.008Z,74.50
2018-04-12T05:28:30.849Z,77.10
2018-04-12T05:29:30.920Z,78.00
2018-04-12T05:30:30.797Z,73.30
2018-04-12T05:31:30.840Z,70.00
2018-04-12T05:32:30.746Z,73.80
2018-04-12T05:33:30.853Z,74.70
2018-04-12T05:34:30.694Z,74.70
2018-04-12T05:35:30.757Z,75.00
2018-04-12T05:36:30.648Z,70.00
2018-04-12T05:37:30.671Z,67.20
2018-04-12T05:38:30.602Z,77.20
2018-04-12T05:39:30.686Z,74.30
2018-04-12T05:40:30.546Z,69.70
2018-04-12T05:41:30.596Z,75.50
2018-04-12T05:42:30.495Z,72.60
2018-04-12T05:43:30.608Z,72.70
2018-04-12T05:44:30.447Z,74.40
2018-04-12T05:45:30.526Z,76.00
2018-04-12T05:46:30.402Z,72.50
2018-04-12T05:47:30.432Z,73.60
2018-04-12T05:48:30.344Z,75.60
2018-04-12T05:49:30.445Z,74.80
2018-04-12T05:50:30.296Z,75.00
2018-04-12T05:51:30.364Z,78.60
2018-04-12T05:52:30.248Z,75.60
2018-04-12T05:53:30.372Z,72.40
2018-04-12T05:54:30.195Z,74.10
2018-04-12T05:55:30.286Z,75.70
2018-04-12T05:56:30.145Z,72.00
2018-04-12T05:57:30.195Z,71.70
2018-04-12T05:58:30.099Z,73.20
2018-04-12T05:59:30.207Z,72.00
2018-04-12T06:00:30.043Z,68.30
2018-04-12T06:01:30.123Z,70.30
2018-04-12T06:02:29.993Z,69.30
2018-04-12T06:03:30.134Z,69.20
2018-04-12T06:04:29.943Z,70.40
2018-04-12T06:05:30.044Z,71.60
2018-04-12T06:06:29.893Z,74.20
2018-04-12T06:07:29.963Z,66.30
2018-04-12T06:08:29.846Z,70.30
2018-04-12T06:09:29.971Z,66.90
2018-04-12T06:10:29.794Z,71.70
2018-04-12T06:11:29.883Z,67.90
2018-04-12T06:12:29.746Z,70.50
2018-04-12T06:13:29.794Z,67.00
2018-04-12T06:14:29.697Z,67.10
2018-04-12T06:15:29.812Z,72.50
2018-04-12T06:16:29.646Z,72.20
2018-04-12T06:17:29.720Z,70.00
2018-04-12T06:18:29.596Z,65.30
2018-04-12T06:19:29.734Z,69.90
2018-04-12T06:20:29.585Z,64.60
2018-04-12T06:21:29.646Z,64.10
2018-04-12T06:22:29.498Z,70.50
2018-04-12T06:23:29.660Z,67.10
2018-04-12T06:24:29.449Z,68.90
2018-04-12T06:25:29.572Z,68.10
2018-04-12T06:26:29.404Z,71.10
2018-04-12T06:27:29.484Z,71.90
2018-04-12T06:28:29.374Z,71.00
2018-04-12T06:29:29.498Z,69.70
2018-04-12T06:30:29.302Z,71.00
2018-04-12T06:31:29.407Z,70.40
2018-04-12T06:32:29.260Z,71.00
2018-04-12T06:33:29.327Z,71.40
2018-04-12T06:34:29.204Z,70.10
2018-04-12T06:35:29.335Z,71.10
2018-04-12T06:36:29.154Z,72.30
2018-04-12T06:37:29.133Z,66.80
2018-04-12T06:38:29.106Z,68.80
2018-04-12T06:39:29.264Z,65.90
2018-04-12T06:40:29.056Z,68.00
2018-04-12T06:41:29.172Z,66.00
2018-04-12T06:42:29.024Z,66.20
2018-04-12T06:43:28.983Z,69.90
2018-04-12T06:44:29.090Z,68.40
2018-04-12T06:45:28.933Z,68.80
2018-04-12T06:46:29.106Z,70.40
2018-04-12T06:47:28.922Z,68.90
2018-04-12T06:48:29.015Z,71.80
2018-04-12T06:49:28.840Z,68.50
2018-04-12T06:50:28.928Z,68.40
2018-04-12T06:51:28.784Z,67.90
2018-04-12T06:52:28.940Z,67.10
2018-04-12T06:53:28.737Z,67.30
2018-04-12T06:54:28.853Z,64.40
2018-04-12T06:55:28.688Z,69.30
2018-04-12T06:56:28.869Z,66.90
2018-04-12T06:57:28.643Z,66.80
2018-04-12T06:58:28.779Z,66.80
2018-04-12T06:59:28.603Z,67.90
2018-04-12T07:00:28.690Z,67.50
2018-04-12T07:01:28.541Z,67.00
2018-04-12T07:02:28.701Z,67.50
2018-04-12T07:03:28.496Z,72.40
2018-04-12T07:04:28.616Z,67.70
2018-04-12T07:05:28.445Z,68.30
2018-04-12T07:06:28.630Z,69.60
2018-04-12T07:07:28.411Z,66.80
2018-04-12T07:08:28.540Z,67.60
2018-04-12T07:09:28.348Z,65.80
2018-04-12T07:10:28.451Z,67.60
2018-04-12T07:11:28.298Z,72.40
2018-04-12T07:12:28.466Z,71.90
2018-04-12T07:13:28.254Z,71.90
2018-04-12T07:14:28.377Z,70.20
2018-04-12T07:15:28.199Z,68.80
2018-04-12T07:16:28.177Z,67.40
2018-04-12T07:17:28.153Z,68.10
2018-04-12T07:18:28.200Z,76.50
2018-04-12T07:19:28.110Z,73.10
2018-04-12T07:20:28.110Z,73.10
2018-04-12T07:21:28.059Z,74.50
2018-04-12T07:22:28.126Z,70.30
2018-04-12T07:23:28.009Z,73.80
2018-04-12T07:24:28.036Z,71.20
2018-04-12T07:25:27.961Z,66.90
2018-04-12T07:26:28.051Z,70.10
2018-04-12T07:27:27.918Z,69.60
2018-04-12T07:28:27.963Z,71.00
2018-04-12T07:29:27.867Z,71.30
2018-04-12T07:30:27.874Z,72.00
2018-04-12T07:31:27.817Z,73.10
2018-04-12T07:32:27.894Z,71.40
2018-04-12T07:33:27.791Z,73.50
2018-04-12T07:34:27.800Z,73.90
2018-04-12T07:35:27.720Z,72.80
2018-04-12T07:36:27.812Z,72.30
2018-04-12T07:37:27.677Z,76.80
2018-04-12T07:38:27.723Z,74.10
2018-04-12T07:39:27.626Z,76.40
2018-04-12T07:40:27.743Z,76.80
2018-04-12T07:41:27.580Z,76.80
2018-04-12T07:42:27.652Z,79.40
2018-04-12T07:43:27.533Z,78.80
2018-04-12T07:44:27.559Z,77.40
2018-04-12T07:45:27.484Z,77.40
2018-04-12T07:46:27.575Z,81.50
2018-04-12T07:47:27.438Z,87.20
2018-04-12T07:48:27.486Z,83.80
2018-04-12T07:49:27.389Z,91.30
2018-04-12T07:50:27.501Z,88.30
2018-04-12T07:51:27.344Z,102.10
2018-04-12T07:52:27.414Z,98.70
2018-04-12T07:53:27.297Z,103.50
2018-04-12T07:54:27.325Z,107.10
2018-04-12T07:55:27.252Z,109.30
2018-04-12T07:56:27.338Z,114.70
2018-04-12T07:59:19.859Z,121.20
2018-04-12T07:59:58.901Z,119.80
2018-04-12T08:01:51.872Z,119.20
2018-04-12T08:02:51.777Z,124.70
2018-04-12T08:04:44.830Z,122.70
2018-04-12T08:05:44.735Z,121.80
2018-04-12T08:07:37.785Z,122.00
2018-04-12T08:08:37.684Z,122.20
2018-04-12T08:10:30.740Z,119.00
2018-04-12T08:11:30.640Z,117.80
2018-04-12T08:13:23.797Z,115.20
2018-04-12T08:14:23.599Z,112.70
2018-04-12T08:16:16.794Z,119.80
2018-04-12T08:17:16.554Z,112.90
2018-04-12T08:19:09.552Z,111.20
2018-04-12T08:20:09.508Z,107.20
2018-04-12T08:22:02.667Z,105.50
2018-04-12T08:23:02.462Z,101.20
2018-04-12T08:24:55.619Z,94.40
2018-04-12T08:25:55.418Z,100.80
2018-04-12T08:27:48.574Z,95.10
2018-04-12T08:28:48.381Z,100.00
2018-04-12T08:30:41.532Z,99.20
2018-04-12T08:31:41.340Z,101.60
2018-04-12T08:33:34.502Z,99.30
2018-04-12T08:34:34.308Z,99.90
2018-04-12T08:36:27.441Z,99.20
2018-04-12T08:37:27.244Z,92.20
2018-04-12T08:39:20.396Z,96.90
2018-04-12T08:40:20.199Z,90.90
2018-04-12T08:42:13.352Z,95.90
2018-04-12T08:43:13.159Z,93.60
2018-04-12T08:45:06.308Z,91.50
2018-04-12T08:46:06.107Z,90.00
2018-04-12T08:47:59.262Z,92.90
2018-04-12T08:48:59.062Z,90.90
2018-04-12T08:50:52.230Z,89.20
2018-04-12T08:51:52.019Z,89.80
2018-04-12T08:53:45.172Z,88.00
2018-04-12T08:54:44.976Z,87.00
2018-04-12T08:56:38.127Z,92.80
2018-04-12T08:57:37.939Z,90.30
2018-04-12T08:59:31.083Z,92.80
2018-04-12T09:00:30.884Z,95.00
2018-04-12T09:02:24.039Z,89.90
2018-04-12T09:03:23.842Z,94.90
2018-04-12T09:05:16.996Z,99.40
2018-04-12T09:06:16.798Z,94.60
2018-04-12T09:08:09.949Z,95.70
2018-04-12T09:09:09.756Z,93.20
2018-04-12T09:11:02.904Z,95.70
2018-04-12T09:12:02.884Z,96.10
2018-04-12T09:13:55.861Z,91.70
2018-04-12T09:14:55.664Z,89.00
2018-04-12T09:16:48.817Z,85.00
2018-04-12T09:17:48.618Z,80.00
2018-04-12T09:19:41.769Z,79.60
2018-04-12T09:20:41.570Z,83.40
2018-04-12T09:22:34.730Z,78.60
2018-04-12T09:23:34.535Z,81.90
2018-04-12T09:25:27.578Z,80.50
2018-04-12T09:26:27.385Z,79.10
2018-04-12T09:28:20.533Z,84.10
2018-04-12T09:29:20.339Z,82.20
2018-04-12T09:31:13.288Z,84.40
2018-04-12T09:32:13.194Z,84.80
2018-04-12T09:34:06.243Z,90.60
2018-04-12T09:35:06.148Z,87.90
2018-04-12T09:36:59.092Z,90.40
2018-04-12T09:37:59.003Z,86.80
2018-04-12T09:39:51.955Z,89.40
2018-04-12T09:40:51.859Z,94.00
2018-04-12T09:42:44.802Z,85.60
2018-04-12T09:43:44.709Z,88.20
2018-04-12T09:45:37.664Z,91.00
2018-04-12T09:46:37.559Z,93.30
2018-04-12T09:48:30.507Z,91.70
2018-04-12T09:49:30.436Z,90.80
2018-04-12T09:51:23.358Z,86.70
2018-04-12T09:52:23.271Z,87.30
2018-04-12T09:54:16.211Z,105.60
2018-04-12T09:55:16.118Z,119.10
2018-04-12T09:57:09.065Z,91.10
2018-04-12T09:58:08.973Z,88.70
2018-04-12T10:00:01.956Z,88.20
2018-04-12T10:01:01.825Z,88.00
2018-04-12T10:02:54.772Z,86.70
2018-04-12T10:03:54.677Z,89.60
2018-04-12T10:05:47.624Z,87.10
2018-04-12T10:06:47.531Z,86.70
2018-04-12T10:08:40.475Z,85.20
2018-04-12T10:09:40.386Z,86.40
2018-04-12T10:11:33.328Z,90.90
2018-04-12T10:12:33.236Z,86.90
2018-04-12T10:14:26.181Z,85.60
2018-04-12T10:15:26.094Z,88.00
2018-04-12T10:17:19.102Z,86.90
2018-04-12T10:18:18.941Z,84.30
2018-04-12T10:20:11.887Z,82.90
2018-04-12T10:21:11.796Z,84.70
2018-04-12T10:23:04.740Z,85.50
2018-04-12T10:24:04.651Z,86.90
2018-04-12T10:25:57.592Z,77.10
2018-04-12T10:26:57.504Z,79.30
2018-04-12T10:28:50.451Z,83.90
2018-04-12T10:29:50.355Z,84.20
2018-04-12T10:31:43.302Z,83.10
2018-04-12T10:32:43.212Z,81.90
2018-04-12T10:34:36.151Z,81.60
2018-04-12T10:35:36.061Z,83.10
2018-04-12T10:37:29.903Z,77.70
2018-04-12T10:38:28.920Z,77.40
2018-04-12T10:40:21.857Z,77.10
2018-04-12T10:41:21.770Z,78.00
2018-04-12T10:43:14.711Z,78.90
2018-04-12T10:44:18.233Z,74.70
2018-04-12T10:46:07.580Z,73.90
2018-04-12T10:47:07.478Z,73.00
2018-04-12T10:49:00.418Z,70.10
2018-04-12T10:50:00.333Z,71.10
2018-04-12T10:51:53.385Z,68.80
2018-04-12T10:52:53.284Z,74.70
2018-04-12T10:54:46.324Z,69.00
2018-04-12T10:55:46.240Z,72.20
2018-04-12T10:57:39.180Z,68.00
2018-04-12T10:58:39.093Z,69.50
2018-04-12T11:00:32.030Z,70.30
2018-04-12T11:01:31.944Z,71.40
2018-04-12T11:02:32.023Z,70.50
2018-04-12T11:03:31.930Z,70.90
2018-04-12T11:04:31.933Z,71.60
2018-04-12T11:05:31.870Z,72.70
2018-04-12T11:06:31.953Z,67.90
2018-04-12T11:07:31.832Z,69.00
2018-04-12T11:08:31.850Z,70.40
2018-04-12T11:09:31.796Z,70.50
2018-04-12T11:10:31.871Z,69.30
2018-04-12T11:11:31.764Z,68.00
2018-04-12T11:12:31.786Z,67.10
2018-04-12T11:13:31.726Z,66.80
2018-04-12T11:14:31.804Z,65.70
2018-04-12T11:15:31.687Z,65.20
2018-04-12T11:16:31.711Z,65.90
2018-04-12T11:17:31.656Z,66.90
2018-04-12T11:18:32.131Z,64.60
2018-04-12T11:19:31.615Z,64.80
2018-04-12T11:20:31.636Z,64.50
2018-04-12T11:21:31.578Z,64.30
2018-04-12T11:22:31.648Z,62.80
2018-04-12T11:23:31.551Z,65.20
2018-04-12T11:24:31.562Z,63.70
2018-04-12T11:25:31.510Z,62.60
2018-04-12T11:26:31.578Z,63.60
2018-04-12T11:27:31.474Z,64.70
2018-04-12T11:28:31.486Z,63.60
2018-04-12T11:29:31.438Z,64.50
2018-04-12T11:30:31.502Z,66.30
2018-04-12T11:31:31.405Z,65.80
2018-04-12T11:32:31.419Z,66.10
2018-04-12T11:33:31.370Z,66.10
2018-04-12T11:34:31.435Z,64.40
2018-04-12T11:35:31.338Z,63.80
2018-04-12T11:36:31.336Z,64.10
2018-04-12T11:37:31.301Z,63.10
2018-04-12T11:38:31.350Z,62.60
2018-04-12T11:39:31.266Z,62.90
2018-04-12T11:40:31.273Z,64.70
2018-04-12T11:41:31.239Z,64.90
2018-04-12T11:42:31.276Z,64.10
2018-04-12T11:43:31.201Z,62.00
2018-04-12T11:44:31.290Z,62.30
2018-04-12T11:45:31.197Z,63.00
2018-04-12T11:46:31.201Z,63.30
2018-04-12T11:47:31.132Z,63.10
2018-04-12T11:48:31.216Z,61.60
2018-04-12T11:49:31.098Z,63.30
2018-04-12T11:50:31.127Z,62.20
2018-04-12T11:51:31.102Z,62.40
2018-04-12T11:52:31.141Z,63.40
2018-04-12T11:53:31.036Z,62.50
2018-04-12T11:54:31.053Z,61.70
2018-04-12T11:55:31.025Z,61.10
2018-04-12T11:56:31.104Z,62.70
2018-04-12T11:57:30.969Z,62.40
2018-04-12T11:58:30.978Z,60.80
2018-04-12T11:59:30.936Z,62.80
2018-04-12T12:00:30.992Z,62.40
2018-04-12T12:01:30.904Z,64.50
2018-04-12T12:02:30.905Z,63.60
2018-04-12T12:03:30.869Z,67.50
2018-04-12T12:04:30.910Z,64.60
2018-04-12T12:05:30.836Z,65.60
2018-04-12T12:06:30.829Z,65.30
2018-04-12T12:07:30.803Z,61.70
2018-04-12T12:08:30.843Z,62.70
2018-04-12T12:09:30.771Z,65.80
2018-04-12T12:10:30.860Z,64.90
2018-04-12T12:11:30.735Z,64.30
2018-04-12T12:12:30.769Z,66.50
2018-04-12T12:13:30.701Z,77.90
2018-04-12T12:14:30.783Z,72.10
2018-04-12T12:15:30.669Z,64.10
2018-04-12T12:16:30.694Z,65.70
2018-04-12T12:17:30.634Z,64.30
2018-04-12T12:18:30.710Z,61.20
2018-04-12T12:19:30.604Z,62.50
2018-04-12T12:20:30.620Z,66.90
2018-04-12T12:21:30.569Z,63.30
2018-04-12T12:22:30.636Z,62.30
2018-04-12T12:23:30.538Z,61.50
2018-04-12T12:24:30.547Z,67.50
2018-04-12T12:25:30.507Z,65.30
2018-04-12T12:26:30.561Z,68.40
2018-04-12T12:27:30.473Z,61.70
2018-04-12T12:28:30.492Z,62.40
2018-04-12T12:29:30.445Z,58.20
2018-04-12T12:30:30.493Z,59.80
2018-04-12T12:31:30.412Z,65.80
2018-04-12T12:32:30.506Z,63.90
2018-04-12T12:33:30.373Z,75.00
2018-04-12T12:34:30.418Z,63.70
2018-04-12T12:35:30.343Z,58.40
2018-04-12T12:36:30.431Z,61.40
2018-04-12T12:37:30.310Z,60.20
2018-04-12T12:38:30.341Z,63.50
2018-04-12T12:39:30.279Z,69.30
2018-04-12T12:40:30.357Z,62.30
2018-04-12T12:41:30.250Z,60.50
2018-04-12T12:42:30.267Z,63.10
2018-04-12T12:43:30.218Z,59.00
2018-04-12T12:44:30.282Z,57.80
2018-04-12T12:45:30.189Z,58.50
2018-04-12T12:46:30.192Z,58.20
2018-04-12T12:47:30.156Z,57.70
2018-04-12T12:48:30.207Z,60.70
2018-04-12T12:49:30.122Z,61.90
2018-04-12T12:50:30.222Z,67.70
2018-04-12T12:51:30.094Z,74.50
2018-04-12T12:52:30.134Z,60.40
2018-04-12T12:53:30.064Z,71.10
2018-04-12T12:54:30.147Z,69.40
2018-04-12T12:55:30.044Z,58.70
2018-04-12T12:56:30.058Z,57.80
2018-04-12T12:57:30.004Z,58.50
2018-04-12T12:58:30.073Z,56.30
2018-04-12T12:59:29.973Z,56.40
2018-04-12T13:00:29.984Z,56.30
2018-04-12T13:01:29.945Z,56.70
2018-04-12T13:02:29.999Z,55.40
2018-04-12T13:03:29.943Z,56.40
2018-04-12T13:04:30.042Z,55.50
2018-04-12T13:05:29.884Z,55.40
2018-04-12T13:06:29.933Z,58.90
2018-04-12T13:07:29.857Z,56.40
2018-04-12T13:08:29.935Z,69.00
2018-04-12T13:09:29.839Z,168.00
2018-04-12T13:10:29.843Z,87.90
2018-04-12T13:11:29.805Z,60.90
2018-04-12T13:12:29.862Z,59.10
2018-04-12T13:13:29.777Z,86.10
2018-04-12T13:14:29.774Z,93.40
2018-04-12T13:15:29.738Z,69.70
2018-04-12T13:16:29.902Z,65.20
2018-04-12T13:17:29.779Z,69.70
2018-04-12T13:18:29.800Z,94.10
2018-04-12T13:19:29.685Z,78.20
2018-04-12T13:20:29.814Z,75.70
2018-04-12T13:21:29.660Z,55.90
2018-04-12T13:22:29.828Z,59.00
2018-04-12T13:23:29.629Z,58.60
2018-04-12T13:24:29.742Z,54.70
2018-04-12T13:25:29.599Z,57.60
2018-04-12T13:26:29.756Z,57.50
2018-04-12T13:27:29.577Z,57.30
2018-04-12T13:28:29.667Z,54.60
2018-04-12T13:29:29.551Z,52.90
2018-04-12T13:30:29.681Z,54.90
2018-04-12T13:31:29.522Z,54.00
2018-04-12T13:32:29.695Z,52.90
2018-04-12T13:33:29.498Z,52.00
2018-04-12T13:34:30.529Z,52.50
2018-04-12T13:35:29.467Z,51.70
2018-04-12T13:36:29.624Z,52.50
2018-04-12T13:37:29.446Z,52.20
2018-04-12T13:38:29.639Z,52.60
2018-04-12T13:39:29.414Z,52.50
2018-04-12T13:40:29.550Z,52.30
2018-04-12T13:41:29.386Z,50.00
2018-04-12T13:42:29.567Z,50.80
2018-04-12T13:43:29.365Z,53.40
2018-04-12T13:44:29.483Z,52.30
2018-04-12T13:45:29.333Z,50.90
2018-04-12T13:46:29.494Z,51.70
2018-04-12T13:47:29.311Z,50.00
2018-04-12T13:48:29.503Z,52.20
2018-04-12T13:49:29.282Z,50.70
2018-04-12T13:50:29.266Z,49.30
2018-04-12T13:51:29.249Z,49.70
2018-04-12T13:52:29.329Z,48.90
2018-04-12T13:53:29.226Z,50.10
2018-04-12T13:54:29.232Z,50.10
2018-04-12T13:55:29.206Z,51.70
2018-04-12T13:56:29.249Z,49.50
2018-04-12T13:57:29.174Z,50.10
2018-04-12T13:58:29.260Z,51.30
2018-04-12T13:59:29.149Z,49.60
2018-04-12T14:00:29.168Z,49.90
2018-04-12T14:01:29.125Z,49.60
2018-04-12T14:02:29.179Z,50.70
2018-04-12T14:03:29.095Z,49.00
2018-04-12T14:04:29.190Z,50.00
2018-04-12T14:05:29.068Z,49.50
2018-04-12T14:06:29.102Z,50.00
2018-04-12T14:07:29.045Z,48.00
2018-04-12T14:08:29.113Z,48.40
2018-04-12T14:09:29.018Z,48.20
2018-04-12T14:10:29.024Z,48.40
2018-04-12T14:11:28.993Z,48.20
2018-04-12T14:12:29.039Z,47.90
2018-04-12T14:13:28.969Z,48.10
2018-04-12T14:14:29.051Z,47.30
2018-04-12T14:15:28.968Z,49.00
2018-04-12T14:16:28.964Z,47.70
2018-04-12T14:17:28.917Z,48.60
2018-04-12T14:18:28.977Z,47.50
2018-04-12T14:19:28.895Z,47.50
2018-04-12T14:20:28.990Z,47.30
2018-04-12T14:21:28.862Z,47.10
2018-04-12T14:22:28.897Z,48.90
2018-04-12T14:23:28.846Z,47.70
2018-04-12T14:24:28.908Z,48.10
2018-04-12T14:25:28.810Z,48.00
2018-04-12T14:26:28.819Z,47.60
2018-04-12T14:27:28.786Z,47.60
2018-04-12T14:28:28.843Z,48.00
2018-04-12T14:29:28.756Z,48.60
2018-04-12T14:30:28.847Z,48.30
2018-04-12T14:31:28.734Z,47.00
2018-04-12T14:32:28.752Z,48.20
2018-04-12T14:33:28.709Z,47.40
2018-04-12T14:34:28.764Z,49.10
2018-04-12T14:35:28.677Z,47.30
2018-04-12T14:36:28.664Z,47.70